sensor_id;sensor_type;location;lat;lon;timestamp;pressure;altitude;pressure_sealevel;temperature;humidity
12594;BME280;6362;50.208;9.182;2023-07-29T00:00:42;99278.47;;;17.97;100.00
12594;BME280;6362;50.208;9.182;2023-07-29T00:03:08;99278.66;;;17.94;100.00
12594;BME280;6362;50.208;9.182;2023-07-29T00:05:34;99274.75;;;17.84;100.00
12594;BME280;6362;50.208;9.182;2023-07-29T00:07:59;99275.97;;;17.77;100.00
12594;BME280;6362;50.208;9.182;2023-07-29T00:10:26;99282.41;;;17.69;100.00
12594;BME280;6362;50.208;9.182;2023-07-29T00:12:51;99280.91;;;17.64;100.00
12594;BME280;6362;50.208;9.182;2023-07-29T00:15:17;99280.13;;;17.62;100.00
12594;BME280;6362;50.208;9.182;2023-07-29T00:17:42;99278.56;;;17.58;100.00
12594;BME280;6362;50.208;9.182;2023-07-29T00:20:07;99285.72;;;17.54;100.00
12594;BME280;6362;50.208;9.182;2023-07-29T00:22:33;99280.34;;;17.57;100.00
12594;BME280;6362;50.208;9.182;2023-07-29T00:24:58;99291.44;;;17.64;100.00
12594;BME280;6362;50.208;9.182;2023-07-29T00:27:25;99287.22;;;17.60;100.00
12594;BME280;6362;50.208;9.182;2023-07-29T00:29:51;99288.78;;;17.64;100.00
12594;BME280;6362;50.208;9.182;2023-07-29T00:32:17;99284.09;;;17.71;100.00
12594;BME280;6362;50.208;9.182;2023-07-29T00:34:42;99280.78;;;17.67;100.00
12594;BME280;6362;50.208;9.182;2023-07-29T00:37:08;99284.25;;;17.67;100.00
12594;BME280;6362;50.208;9.182;2023-07-29T00:39:33;99277.22;;;17.68;100.00
12594;BME280;6362;50.208;9.182;2023-07-29T00:41:59;99278.66;;;17.75;100.00
12594;BME280;6362;50.208;9.182;2023-07-29T00:44:24;99278.31;;;17.83;100.00
12594;BME280;6362;50.208;9.182;2023-07-29T00:46:52;99276.88;;;17.76;100.00
12594;BME280;6362;50.208;9.182;2023-07-29T00:49:18;99278.22;;;17.84;100.00
12594;BME280;6362;50.208;9.182;2023-07-29T00:51:43;99267.16;;;17.78;100.00
12594;BME280;6362;50.208;9.182;2023-07-29T00:54:08;99267.19;;;17.76;100.00
12594;BME280;6362;50.208;9.182;2023-07-29T00:56:34;99262.88;;;17.75;100.00
12594;BME280;6362;50.208;9.182;2023-07-29T00:59:01;99257.78;;;17.72;100.00
12594;BME280;6362;50.208;9.182;2023-07-29T01:01:31;99261.25;;;17.73;100.00
12594;BME280;6362;50.208;9.182;2023-07-29T01:03:57;99258.72;;;17.69;100.00
12594;BME280;6362;50.208;9.182;2023-07-29T01:15:12;99235.97;;;17.68;100.00
12594;BME280;6362;50.208;9.182;2023-07-29T01:17:47;99243.88;;;17.68;100.00
12594;BME280;6362;50.208;9.182;2023-07-29T01:20:15;99230.16;;;17.81;100.00
12594;BME280;6362;50.208;9.182;2023-07-29T01:22:41;99233.72;;;17.80;100.00
12594;BME280;6362;50.208;9.182;2023-07-29T01:25:07;99233.91;;;17.77;100.00
12594;BME280;6362;50.208;9.182;2023-07-29T01:27:32;99239.19;;;17.75;100.00
12594;BME280;6362;50.208;9.182;2023-07-29T01:29:59;99232.16;;;17.76;100.00
12594;BME280;6362;50.208;9.182;2023-07-29T01:32:46;99230.53;;;17.73;100.00
12594;BME280;6362;50.208;9.182;2023-07-29T01:35:43;99234.03;;;17.74;100.00
12594;BME280;6362;50.208;9.182;2023-07-29T01:38:22;99232.25;;;17.74;100.00
12594;BME280;6362;50.208;9.182;2023-07-29T01:40:50;99227.63;;;17.79;100.00
12594;BME280;6362;50.208;9.182;2023-07-29T01:43:18;99229.41;;;17.79;100.00
12594;BME280;6362;50.208;9.182;2023-07-29T01:45:48;99220.75;;;17.77;100.00
12594;BME280;6362;50.208;9.182;2023-07-29T01:48:14;99222.69;;;17.90;100.00
12594;BME280;6362;50.208;9.182;2023-07-29T01:50:39;99224.69;;;17.85;100.00
12594;BME280;6362;50.208;9.182;2023-07-29T01:53:05;99218.44;;;17.88;100.00
12594;BME280;6362;50.208;9.182;2023-07-29T01:55:30;99221.91;;;17.88;100.00
12594;BME280;6362;50.208;9.182;2023-07-29T01:57:56;99207.91;;;17.88;100.00
12594;BME280;6362;50.208;9.182;2023-07-29T02:00:21;99208.97;;;17.84;100.00
12594;BME280;6362;50.208;9.182;2023-07-29T02:02:47;99195.75;;;17.85;100.00
12594;BME280;6362;50.208;9.182;2023-07-29T02:05:12;99205.56;;;17.82;100.00
12594;BME280;6362;50.208;9.182;2023-07-29T02:07:37;99208.56;;;17.74;100.00
12594;BME280;6362;50.208;9.182;2023-07-29T02:10:03;99203.09;;;17.79;100.00
12594;BME280;6362;50.208;9.182;2023-07-29T02:12:29;99206.50;;;17.81;100.00
12594;BME280;6362;50.208;9.182;2023-07-29T02:14:54;99208.97;;;17.84;100.00
12594;BME280;6362;50.208;9.182;2023-07-29T02:17:19;99200.53;;;17.77;100.00
12594;BME280;6362;50.208;9.182;2023-07-29T02:19:46;99204.88;;;17.78;100.00
12594;BME280;6362;50.208;9.182;2023-07-29T02:22:17;99195.53;;;17.71;100.00
12594;BME280;6362;50.208;9.182;2023-07-29T02:24:43;99192.97;;;17.69;100.00
12594;BME280;6362;50.208;9.182;2023-07-29T02:27:08;99183.03;;;17.76;100.00
12594;BME280;6362;50.208;9.182;2023-07-29T02:29:34;99190.16;;;17.74;100.00
12594;BME280;6362;50.208;9.182;2023-07-29T02:32:00;99183.38;;;17.87;100.00
12594;BME280;6362;50.208;9.182;2023-07-29T02:34:25;99182.28;;;17.91;100.00
12594;BME280;6362;50.208;9.182;2023-07-29T02:36:51;99179.19;;;17.83;100.00
12594;BME280;6362;50.208;9.182;2023-07-29T02:39:16;99182.06;;;17.79;100.00
12594;BME280;6362;50.208;9.182;2023-07-29T02:41:42;99185.75;;;17.75;100.00
12594;BME280;6362;50.208;9.182;2023-07-29T02:44:07;99183.19;;;17.73;100.00
12594;BME280;6362;50.208;9.182;2023-07-29T02:46:32;99182.47;;;17.69;100.00
12594;BME280;6362;50.208;9.182;2023-07-29T02:48:58;99175.59;;;17.67;100.00
12594;BME280;6362;50.208;9.182;2023-07-29T02:51:24;99176.50;;;17.66;100.00
12594;BME280;6362;50.208;9.182;2023-07-29T02:53:49;99176.56;;;17.64;100.00
12594;BME280;6362;50.208;9.182;2023-07-29T02:56:15;99181.06;;;17.62;100.00
12594;BME280;6362;50.208;9.182;2023-07-29T02:58:40;99176.66;;;17.63;100.00
12594;BME280;6362;50.208;9.182;2023-07-29T03:01:06;99166.13;;;17.63;100.00
12594;BME280;6362;50.208;9.182;2023-07-29T03:03:32;99162.66;;;17.62;100.00
12594;BME280;6362;50.208;9.182;2023-07-29T03:06:02;99158.16;;;17.64;100.00
12594;BME280;6362;50.208;9.182;2023-07-29T03:08:28;99158.03;;;17.67;100.00
12594;BME280;6362;50.208;9.182;2023-07-29T03:10:55;99155.22;;;17.71;100.00
12594;BME280;6362;50.208;9.182;2023-07-29T03:13:20;99164.78;;;17.73;100.00
12594;BME280;6362;50.208;9.182;2023-07-29T03:15:46;99158.59;;;17.74;100.00
12594;BME280;6362;50.208;9.182;2023-07-29T03:18:11;99163.00;;;17.74;100.00
12594;BME280;6362;50.208;9.182;2023-07-29T03:20:37;99171.66;;;17.76;100.00
12594;BME280;6362;50.208;9.182;2023-07-29T03:23:02;99171.44;;;17.80;100.00
12594;BME280;6362;50.208;9.182;2023-07-29T03:25:28;99166.19;;;17.80;100.00
12594;BME280;6362;50.208;9.182;2023-07-29T03:27:54;99162.78;;;17.78;100.00
12594;BME280;6362;50.208;9.182;2023-07-29T03:30:20;99168.13;;;17.77;100.00
12594;BME280;6362;50.208;9.182;2023-07-29T03:32:47;99173.84;;;17.85;100.00
12594;BME280;6362;50.208;9.182;2023-07-29T03:35:13;99175.09;;;17.78;100.00
12594;BME280;6362;50.208;9.182;2023-07-29T03:37:38;99176.88;;;17.77;100.00
12594;BME280;6362;50.208;9.182;2023-07-29T03:40:05;99149.47;;;17.81;100.00
12594;BME280;6362;50.208;9.182;2023-07-29T03:42:31;99145.38;;;17.76;100.00
12594;BME280;6362;50.208;9.182;2023-07-29T03:44:56;99152.19;;;17.80;100.00
12594;BME280;6362;50.208;9.182;2023-07-29T03:47:22;99151.03;;;17.85;100.00
12594;BME280;6362;50.208;9.182;2023-07-29T03:49:47;99157.63;;;17.94;100.00
12594;BME280;6362;50.208;9.182;2023-07-29T03:52:12;99148.94;;;17.92;100.00
12594;BME280;6362;50.208;9.182;2023-07-29T03:54:38;99138.09;;;17.81;100.00
12594;BME280;6362;50.208;9.182;2023-07-29T03:57:03;99136.56;;;17.77;100.00
12594;BME280;6362;50.208;9.182;2023-07-29T03:59:29;99121.88;;;17.71;100.00
12594;BME280;6362;50.208;9.182;2023-07-29T04:01:54;99119.88;;;17.59;100.00
12594;BME280;6362;50.208;9.182;2023-07-29T04:04:20;99120.34;;;17.50;100.00
12594;BME280;6362;50.208;9.182;2023-07-29T04:06:45;99125.81;;;17.45;100.00
12594;BME280;6362;50.208;9.182;2023-07-29T04:09:11;99130.06;;;17.48;100.00
12594;BME280;6362;50.208;9.182;2023-07-29T04:11:36;99137.31;;;17.42;100.00
12594;BME280;6362;50.208;9.182;2023-07-29T04:14:02;99136.63;;;17.39;100.00
12594;BME280;6362;50.208;9.182;2023-07-29T04:16:27;99144.56;;;17.37;100.00
12594;BME280;6362;50.208;9.182;2023-07-29T04:18:54;99152.53;;;17.36;100.00
12594;BME280;6362;50.208;9.182;2023-07-29T04:21:19;99140.19;;;17.38;100.00
12594;BME280;6362;50.208;9.182;2023-07-29T04:23:44;99123.53;;;17.37;100.00
12594;BME280;6362;50.208;9.182;2023-07-29T04:26:10;99126.13;;;17.39;100.00
12594;BME280;6362;50.208;9.182;2023-07-29T04:28:35;99118.06;;;17.42;100.00
12594;BME280;6362;50.208;9.182;2023-07-29T04:31:01;99124.91;;;17.63;100.00
12594;BME280;6362;50.208;9.182;2023-07-29T04:33:26;99125.13;;;17.59;100.00
12594;BME280;6362;50.208;9.182;2023-07-29T04:35:51;99122.38;;;17.62;100.00
12594;BME280;6362;50.208;9.182;2023-07-29T04:38:17;99124.06;;;17.63;100.00
12594;BME280;6362;50.208;9.182;2023-07-29T04:40:42;99128.91;;;17.72;100.00
12594;BME280;6362;50.208;9.182;2023-07-29T04:43:08;99136.91;;;17.69;100.00
12594;BME280;6362;50.208;9.182;2023-07-29T04:45:33;99131.81;;;17.66;100.00
12594;BME280;6362;50.208;9.182;2023-07-29T04:47:59;99124.78;;;17.66;100.00
12594;BME280;6362;50.208;9.182;2023-07-29T04:50:24;99122.91;;;17.68;100.00
12594;BME280;6362;50.208;9.182;2023-07-29T04:52:50;99121.00;;;17.72;100.00
12594;BME280;6362;50.208;9.182;2023-07-29T04:55:15;99121.88;;;17.73;100.00
12594;BME280;6362;50.208;9.182;2023-07-29T04:57:41;99122.63;;;17.75;100.00
12594;BME280;6362;50.208;9.182;2023-07-29T05:00:06;99122.53;;;17.76;100.00
12594;BME280;6362;50.208;9.182;2023-07-29T05:02:32;99117.22;;;17.78;100.00
12594;BME280;6362;50.208;9.182;2023-07-29T05:04:57;99122.00;;;17.87;100.00
12594;BME280;6362;50.208;9.182;2023-07-29T05:07:23;99112.59;;;18.00;100.00
12594;BME280;6362;50.208;9.182;2023-07-29T05:09:48;99111.78;;;17.98;100.00
12594;BME280;6362;50.208;9.182;2023-07-29T05:12:14;99111.97;;;17.95;100.00
12594;BME280;6362;50.208;9.182;2023-07-29T05:14:39;99115.56;;;18.10;100.00
12594;BME280;6362;50.208;9.182;2023-07-29T05:17:05;99106.97;;;18.24;100.00
12594;BME280;6362;50.208;9.182;2023-07-29T05:19:30;99119.53;;;18.18;100.00
12594;BME280;6362;50.208;9.182;2023-07-29T05:21:56;99120.78;;;18.11;100.00
12594;BME280;6362;50.208;9.182;2023-07-29T05:24:23;99122.63;;;18.09;100.00
12594;BME280;6362;50.208;9.182;2023-07-29T05:26:48;99122.47;;;18.12;100.00
12594;BME280;6362;50.208;9.182;2023-07-29T05:29:14;99119.84;;;18.12;100.00
12594;BME280;6362;50.208;9.182;2023-07-29T05:31:39;99125.88;;;18.14;100.00
12594;BME280;6362;50.208;9.182;2023-07-29T05:34:05;99119.63;;;18.17;100.00
12594;BME280;6362;50.208;9.182;2023-07-29T05:36:30;99128.19;;;18.20;100.00
12594;BME280;6362;50.208;9.182;2023-07-29T05:38:56;99129.66;;;18.26;100.00
12594;BME280;6362;50.208;9.182;2023-07-29T05:41:21;99132.91;;;18.31;100.00
12594;BME280;6362;50.208;9.182;2023-07-29T05:43:47;99124.16;;;18.31;100.00
12594;BME280;6362;50.208;9.182;2023-07-29T05:46:12;99133.59;;;18.35;100.00
12594;BME280;6362;50.208;9.182;2023-07-29T05:48:38;99133.59;;;18.35;100.00
12594;BME280;6362;50.208;9.182;2023-07-29T05:51:03;99131.56;;;18.40;100.00
12594;BME280;6362;50.208;9.182;2023-07-29T05:53:30;99134.06;;;18.59;100.00
12594;BME280;6362;50.208;9.182;2023-07-29T05:55:56;99141.75;;;18.63;100.00
12594;BME280;6362;50.208;9.182;2023-07-29T05:58:22;99147.56;;;18.70;100.00
12594;BME280;6362;50.208;9.182;2023-07-29T06:00:47;99148.06;;;18.77;100.00
12594;BME280;6362;50.208;9.182;2023-07-29T06:03:12;99146.66;;;18.87;100.00
12594;BME280;6362;50.208;9.182;2023-07-29T06:05:39;99158.13;;;18.86;100.00
12594;BME280;6362;50.208;9.182;2023-07-29T06:08:04;99157.66;;;18.95;100.00
12594;BME280;6362;50.208;9.182;2023-07-29T06:10:30;99161.03;;;18.97;100.00
12594;BME280;6362;50.208;9.182;2023-07-29T06:12:55;99167.94;;;18.99;100.00
12594;BME280;6362;50.208;9.182;2023-07-29T06:15:21;99167.16;;;18.97;100.00
12594;BME280;6362;50.208;9.182;2023-07-29T06:17:48;99168.94;;;18.97;100.00
12594;BME280;6362;50.208;9.182;2023-07-29T06:20:13;99160.09;;;18.98;100.00
12594;BME280;6362;50.208;9.182;2023-07-29T06:22:39;99164.53;;;18.97;100.00
12594;BME280;6362;50.208;9.182;2023-07-29T06:25:04;99165.97;;;19.03;100.00
12594;BME280;6362;50.208;9.182;2023-07-29T06:27:30;99161.16;;;19.11;100.00
12594;BME280;6362;50.208;9.182;2023-07-29T06:29:55;99152.41;;;19.11;100.00
12594;BME280;6362;50.208;9.182;2023-07-29T06:32:21;99154.75;;;19.15;100.00
12594;BME280;6362;50.208;9.182;2023-07-29T06:34:46;99153.84;;;19.16;100.00
12594;BME280;6362;50.208;9.182;2023-07-29T06:37:11;99154.50;;;19.20;100.00
12594;BME280;6362;50.208;9.182;2023-07-29T06:39:37;99150.41;;;19.14;100.00
12594;BME280;6362;50.208;9.182;2023-07-29T06:42:02;99154.69;;;19.17;100.00
12594;BME280;6362;50.208;9.182;2023-07-29T06:44:28;99146.84;;;19.15;100.00
12594;BME280;6362;50.208;9.182;2023-07-29T06:46:53;99154.19;;;19.10;100.00
12594;BME280;6362;50.208;9.182;2023-07-29T06:49:19;99162.34;;;19.06;100.00
12594;BME280;6362;50.208;9.182;2023-07-29T06:51:44;99161.81;;;18.99;100.00
12594;BME280;6362;50.208;9.182;2023-07-29T06:54:10;99162.91;;;18.95;100.00
12594;BME280;6362;50.208;9.182;2023-07-29T06:56:35;99154.31;;;18.91;100.00
12594;BME280;6362;50.208;9.182;2023-07-29T06:59:00;99153.66;;;18.88;100.00
12594;BME280;6362;50.208;9.182;2023-07-29T07:01:26;99157.38;;;18.84;100.00
12594;BME280;6362;50.208;9.182;2023-07-29T07:03:51;99167.22;;;18.80;100.00
12594;BME280;6362;50.208;9.182;2023-07-29T07:06:22;99171.13;;;18.73;100.00
12594;BME280;6362;50.208;9.182;2023-07-29T07:08:49;99178.41;;;18.68;100.00
12594;BME280;6362;50.208;9.182;2023-07-29T07:11:15;99198.00;;;18.62;100.00
12594;BME280;6362;50.208;9.182;2023-07-29T07:13:40;99186.13;;;18.71;100.00
12594;BME280;6362;50.208;9.182;2023-07-29T07:16:06;99176.16;;;18.78;100.00
12594;BME280;6362;50.208;9.182;2023-07-29T07:18:31;99158.19;;;18.68;100.00
12594;BME280;6362;50.208;9.182;2023-07-29T07:20:56;99180.03;;;18.53;100.00
12594;BME280;6362;50.208;9.182;2023-07-29T07:23:22;99183.78;;;18.49;100.00
12594;BME280;6362;50.208;9.182;2023-07-29T07:25:47;99167.78;;;18.52;100.00
12594;BME280;6362;50.208;9.182;2023-07-29T07:28:12;99173.25;;;18.49;100.00
12594;BME280;6362;50.208;9.182;2023-07-29T07:30:41;99171.44;;;18.50;100.00
12594;BME280;6362;50.208;9.182;2023-07-29T07:33:07;99168.88;;;18.48;100.00
12594;BME280;6362;50.208;9.182;2023-07-29T07:35:32;99163.94;;;18.42;100.00
12594;BME280;6362;50.208;9.182;2023-07-29T07:37:58;99180.34;;;18.47;100.00
12594;BME280;6362;50.208;9.182;2023-07-29T07:40:24;99182.97;;;18.47;100.00
12594;BME280;6362;50.208;9.182;2023-07-29T07:42:50;99189.19;;;18.46;100.00
12594;BME280;6362;50.208;9.182;2023-07-29T07:45:15;99183.91;;;18.46;100.00
12594;BME280;6362;50.208;9.182;2023-07-29T07:47:43;99165.47;;;18.46;100.00
12594;BME280;6362;50.208;9.182;2023-07-29T07:50:08;99154.81;;;18.49;100.00
12594;BME280;6362;50.208;9.182;2023-07-29T07:52:34;99146.63;;;18.54;100.00
12594;BME280;6362;50.208;9.182;2023-07-29T07:54:59;99150.81;;;18.58;100.00
12594;BME280;6362;50.208;9.182;2023-07-29T07:57:25;99161.19;;;18.61;100.00
12594;BME280;6362;50.208;9.182;2023-07-29T07:59:50;99148.72;;;18.64;100.00
12594;BME280;6362;50.208;9.182;2023-07-29T08:02:17;99146.81;;;18.68;100.00
12594;BME280;6362;50.208;9.182;2023-07-29T08:04:43;99158.03;;;18.71;100.00
12594;BME280;6362;50.208;9.182;2023-07-29T08:07:08;99177.38;;;18.70;100.00
12594;BME280;6362;50.208;9.182;2023-07-29T08:09:34;99172.97;;;18.71;100.00
12594;BME280;6362;50.208;9.182;2023-07-29T08:11:59;99176.47;;;18.71;100.00
12594;BME280;6362;50.208;9.182;2023-07-29T08:14:25;99186.31;;;18.68;100.00
12594;BME280;6362;50.208;9.182;2023-07-29T08:16:51;99182.75;;;18.69;100.00
12594;BME280;6362;50.208;9.182;2023-07-29T08:19:17;99182.81;;;18.67;100.00
12594;BME280;6362;50.208;9.182;2023-07-29T08:21:42;99185.53;;;18.66;100.00
12594;BME280;6362;50.208;9.182;2023-07-29T08:24:08;99188.16;;;18.66;100.00
12594;BME280;6362;50.208;9.182;2023-07-29T08:26:33;99196.00;;;18.67;100.00
12594;BME280;6362;50.208;9.182;2023-07-29T08:28:59;99189.31;;;18.78;100.00
12594;BME280;6362;50.208;9.182;2023-07-29T08:31:24;99194.16;;;18.85;100.00
12594;BME280;6362;50.208;9.182;2023-07-29T08:33:49;99202.44;;;18.95;100.00
12594;BME280;6362;50.208;9.182;2023-07-29T08:36:15;99196.66;;;19.04;100.00
12594;BME280;6362;50.208;9.182;2023-07-29T08:38:41;99193.72;;;19.10;100.00
12594;BME280;6362;50.208;9.182;2023-07-29T08:44:01;99197.88;;;19.30;100.00
12594;BME280;6362;50.208;9.182;2023-07-29T08:46:30;99194.06;;;19.36;100.00
12594;BME280;6362;50.208;9.182;2023-07-29T08:48:55;99197.19;;;19.58;100.00
12594;BME280;6362;50.208;9.182;2023-07-29T08:51:23;99203.25;;;19.76;100.00
12594;BME280;6362;50.208;9.182;2023-07-29T08:53:49;99196.50;;;19.86;100.00
12594;BME280;6362;50.208;9.182;2023-07-29T08:56:15;99197.59;;;19.98;100.00
12594;BME280;6362;50.208;9.182;2023-07-29T08:58:41;99197.66;;;20.12;99.52
12594;BME280;6362;50.208;9.182;2023-07-29T09:01:07;99194.41;;;20.37;98.39
12594;BME280;6362;50.208;9.182;2023-07-29T09:03:32;99197.78;;;20.55;97.71
12594;BME280;6362;50.208;9.182;2023-07-29T09:05:58;99197.50;;;20.74;94.39
12594;BME280;6362;50.208;9.182;2023-07-29T09:08:25;99190.63;;;20.86;93.50
12594;BME280;6362;50.208;9.182;2023-07-29T09:10:52;99171.63;;;21.07;91.45
12594;BME280;6362;50.208;9.182;2023-07-29T09:13:17;99176.78;;;21.38;90.64
12594;BME280;6362;50.208;9.182;2023-07-29T09:15:43;99178.22;;;21.43;89.44
12594;BME280;6362;50.208;9.182;2023-07-29T09:18:13;99178.16;;;21.57;87.66
12594;BME280;6362;50.208;9.182;2023-07-29T09:20:39;99171.75;;;21.47;86.50
12594;BME280;6362;50.208;9.182;2023-07-29T09:23:08;99178.63;;;21.64;86.68
12594;BME280;6362;50.208;9.182;2023-07-29T09:25:34;99184.91;;;21.76;85.48
12594;BME280;6362;50.208;9.182;2023-07-29T09:28:00;99186.28;;;21.81;84.80
12594;BME280;6362;50.208;9.182;2023-07-29T09:30:27;99184.34;;;21.71;83.86
12594;BME280;6362;50.208;9.182;2023-07-29T09:32:56;99184.19;;;21.59;85.99
12594;BME280;6362;50.208;9.182;2023-07-29T09:35:23;99187.06;;;21.56;82.45
12594;BME280;6362;50.208;9.182;2023-07-29T09:37:48;99178.47;;;21.53;82.32
12594;BME280;6362;50.208;9.182;2023-07-29T09:40:14;99180.59;;;21.87;83.50
12594;BME280;6362;50.208;9.182;2023-07-29T09:42:51;99182.66;;;21.97;79.90
12594;BME280;6362;50.208;9.182;2023-07-29T09:45:24;99181.97;;;22.20;79.75
12594;BME280;6362;50.208;9.182;2023-07-29T09:47:50;99178.31;;;22.48;78.15
12594;BME280;6362;50.208;9.182;2023-07-29T09:50:16;99180.66;;;22.78;76.54
12594;BME280;6362;50.208;9.182;2023-07-29T09:52:41;99186.59;;;22.95;75.43
12594;BME280;6362;50.208;9.182;2023-07-29T09:55:07;99182.34;;;22.92;76.43
12594;BME280;6362;50.208;9.182;2023-07-29T09:57:34;99180.22;;;22.97;75.35
12594;BME280;6362;50.208;9.182;2023-07-29T10:00:01;99173.53;;;23.17;73.16
12594;BME280;6362;50.208;9.182;2023-07-29T10:02:29;99184.09;;;23.30;73.93
12594;BME280;6362;50.208;9.182;2023-07-29T10:04:56;99178.78;;;23.30;73.63
12594;BME280;6362;50.208;9.182;2023-07-29T10:07:22;99186.34;;;23.23;73.39
12594;BME280;6362;50.208;9.182;2023-07-29T10:09:48;99182.00;;;23.22;72.92
12594;BME280;6362;50.208;9.182;2023-07-29T10:12:17;99175.91;;;23.33;73.33
12594;BME280;6362;50.208;9.182;2023-07-29T10:14:43;99179.38;;;23.46;74.86
12594;BME280;6362;50.208;9.182;2023-07-29T10:17:09;99170.91;;;23.41;73.07
12594;BME280;6362;50.208;9.182;2023-07-29T10:19:36;99178.81;;;23.54;73.01
12594;BME280;6362;50.208;9.182;2023-07-29T10:22:03;99181.00;;;23.36;72.13
12594;BME280;6362;50.208;9.182;2023-07-29T10:24:33;99175.47;;;23.39;72.73
12594;BME280;6362;50.208;9.182;2023-07-29T10:27:01;99172.63;;;23.90;72.44
12594;BME280;6362;50.208;9.182;2023-07-29T10:29:31;99170.31;;;24.20;71.70
12594;BME280;6362;50.208;9.182;2023-07-29T10:32:02;99170.78;;;24.49;68.08
12594;BME280;6362;50.208;9.182;2023-07-29T10:34:30;99163.84;;;24.36;68.10
12594;BME280;6362;50.208;9.182;2023-07-29T10:36:56;99167.53;;;24.57;68.57
12594;BME280;6362;50.208;9.182;2023-07-29T10:39:24;99157.09;;;24.43;67.75
12594;BME280;6362;50.208;9.182;2023-07-29T10:47:20;99138.13;;;24.36;67.54
12594;BME280;6362;50.208;9.182;2023-07-29T10:49:50;99149.72;;;24.00;68.25
12594;BME280;6362;50.208;9.182;2023-07-29T10:52:28;99151.41;;;23.66;68.82
12594;BME280;6362;50.208;9.182;2023-07-29T10:54:54;99150.69;;;23.27;70.92
12594;BME280;6362;50.208;9.182;2023-07-29T10:59:58;99154.00;;;23.42;70.94
12594;BME280;6362;50.208;9.182;2023-07-29T11:02:32;99152.19;;;24.14;68.25
12594;BME280;6362;50.208;9.182;2023-07-29T11:04:58;99148.22;;;24.78;66.09
12594;BME280;6362;50.208;9.182;2023-07-29T11:07:26;99148.34;;;25.21;62.12
12594;BME280;6362;50.208;9.182;2023-07-29T11:12:50;99146.88;;;24.61;63.73
12594;BME280;6362;50.208;9.182;2023-07-29T11:20:24;99141.75;;;25.36;61.66
12594;BME280;6362;50.208;9.182;2023-07-29T11:22:50;99138.38;;;25.34;59.80
12594;BME280;6362;50.208;9.182;2023-07-29T11:25:17;99132.25;;;25.66;59.70
12594;BME280;6362;50.208;9.182;2023-07-29T11:27:44;99132.22;;;25.98;56.65
12594;BME280;6362;50.208;9.182;2023-07-29T11:30:11;99124.16;;;26.72;59.35
12594;BME280;6362;50.208;9.182;2023-07-29T11:32:38;99121.69;;;27.30;54.68
12594;BME280;6362;50.208;9.182;2023-07-29T11:35:08;99122.50;;;26.50;53.71
12594;BME280;6362;50.208;9.182;2023-07-29T11:37:35;99118.59;;;26.33;54.05
12594;BME280;6362;50.208;9.182;2023-07-29T11:40:01;99115.38;;;25.44;55.41
12594;BME280;6362;50.208;9.182;2023-07-29T11:42:27;99115.19;;;24.80;58.55
12594;BME280;6362;50.208;9.182;2023-07-29T11:44:56;99116.16;;;24.57;60.22
12594;BME280;6362;50.208;9.182;2023-07-29T11:47:22;99109.63;;;24.38;59.84
12594;BME280;6362;50.208;9.182;2023-07-29T11:49:47;99118.06;;;24.32;58.73
12594;BME280;6362;50.208;9.182;2023-07-29T11:52:13;99117.19;;;24.32;60.15
12594;BME280;6362;50.208;9.182;2023-07-29T11:54:39;99121.22;;;24.48;58.78
12594;BME280;6362;50.208;9.182;2023-07-29T11:57:08;99112.19;;;24.73;58.73
12594;BME280;6362;50.208;9.182;2023-07-29T11:59:35;99113.84;;;24.86;58.02
12594;BME280;6362;50.208;9.182;2023-07-29T12:02:02;99112.53;;;24.80;58.73
12594;BME280;6362;50.208;9.182;2023-07-29T12:04:30;99114.59;;;24.88;58.70
12594;BME280;6362;50.208;9.182;2023-07-29T12:06:57;99111.31;;;25.61;60.89
12594;BME280;6362;50.208;9.182;2023-07-29T12:09:23;99113.88;;;26.16;57.74
12594;BME280;6362;50.208;9.182;2023-07-29T12:11:48;99100.31;;;27.10;61.31
12594;BME280;6362;50.208;9.182;2023-07-29T12:14:16;99097.94;;;27.27;54.13
12594;BME280;6362;50.208;9.182;2023-07-29T12:16:47;99095.72;;;27.32;51.97
12594;BME280;6362;50.208;9.182;2023-07-29T12:19:13;99099.06;;;26.84;54.04
12594;BME280;6362;50.208;9.182;2023-07-29T12:21:41;99108.66;;;26.96;53.91
12594;BME280;6362;50.208;9.182;2023-07-29T12:24:06;99110.47;;;27.26;50.95
12594;BME280;6362;50.208;9.182;2023-07-29T12:26:32;99103.59;;;27.62;49.13
12594;BME280;6362;50.208;9.182;2023-07-29T12:28:58;99109.03;;;27.22;48.32
12594;BME280;6362;50.208;9.182;2023-07-29T12:31:33;99101.44;;;26.77;49.89
12594;BME280;6362;50.208;9.182;2023-07-29T12:33:58;99099.72;;;26.67;49.64
12594;BME280;6362;50.208;9.182;2023-07-29T12:36:41;99102.16;;;26.49;50.03
12594;BME280;6362;50.208;9.182;2023-07-29T12:39:16;99100.69;;;26.66;49.43
12594;BME280;6362;50.208;9.182;2023-07-29T12:41:41;99094.13;;;27.10;49.14
12594;BME280;6362;50.208;9.182;2023-07-29T12:44:07;99094.59;;;27.44;48.18
12594;BME280;6362;50.208;9.182;2023-07-29T12:46:32;99095.00;;;28.17;50.09
12594;BME280;6362;50.208;9.182;2023-07-29T12:48:57;99095.09;;;28.82;45.32
12594;BME280;6362;50.208;9.182;2023-07-29T12:51:23;99086.72;;;29.40;43.74
12594;BME280;6362;50.208;9.182;2023-07-29T12:53:48;99086.59;;;28.86;43.05
12594;BME280;6362;50.208;9.182;2023-07-29T12:56:13;99079.13;;;28.90;43.87
12594;BME280;6362;50.208;9.182;2023-07-29T12:58:39;99082.38;;;28.93;43.12
12594;BME280;6362;50.208;9.182;2023-07-29T13:01:04;99087.03;;;28.54;44.69
12594;BME280;6362;50.208;9.182;2023-07-29T13:03:30;99084.06;;;27.81;46.06
12594;BME280;6362;50.208;9.182;2023-07-29T13:05:55;99092.75;;;27.45;46.74
12594;BME280;6362;50.208;9.182;2023-07-29T13:08:20;99081.63;;;27.20;47.78
12594;BME280;6362;50.208;9.182;2023-07-29T13:10:48;99068.75;;;27.74;46.71
12594;BME280;6362;50.208;9.182;2023-07-29T13:13:14;99061.91;;;28.18;45.72
12594;BME280;6362;50.208;9.182;2023-07-29T13:15:39;99064.94;;;27.86;47.15
12594;BME280;6362;50.208;9.182;2023-07-29T13:18:04;99077.28;;;27.48;48.03
12594;BME280;6362;50.208;9.182;2023-07-29T13:20:30;99071.38;;;27.35;49.28
12594;BME280;6362;50.208;9.182;2023-07-29T13:22:55;99065.75;;;27.19;50.03
12594;BME280;6362;50.208;9.182;2023-07-29T13:25:21;99064.78;;;26.79;51.91